Time;durP1;ratioP1;P1;durP2;ratioP2;P2;SDS_P1;SDS_P2;PMS_P1;PMS_P2;Temp;Humidity;BMP_temperature;BMP_pressure;BME280_temperature;BME280_humidity;BME280_pressure;Samples;Min_cycle;Max_cycle;Signal;HPM_P1;HPM_P2
2024/01/16 00:00:39;;;;;;;3.13;1.70;;;;;;;;;;5072998;28;20520;-50
2024/01/16 00:03:05;;;;;;;3.70;1.90;;;;;;;;;;5072534;28;20529;-50
2024/01/16 00:05:31;;;;;;;2.30;1.57;;;;;;;;;;5072831;28;20200;-49
2024/01/16 00:07:59;;;;;;;2.60;1.60;;;;;;;;;;5072580;28;20472;-51
2024/01/16 00:10:25;;;;;;;2.93;1.70;;;;;;;;;;5072714;28;20211;-50
2024/01/16 00:12:51;;;;;;;2.90;1.60;;;;;;;;;;5072302;28;20500;-50
2024/01/16 00:15:17;;;;;;;2.23;1.67;;;;;;;;;;5072389;28;20564;-50
2024/01/16 00:17:43;;;;;;;3.47;2.10;;;;;;;;;;5072313;28;20471;-51
2024/01/16 00:20:10;;;;;;;2.03;1.70;;;;;;;;;;5072555;28;20430;-50
2024/01/16 00:22:36;;;;;;;3.60;1.80;;;;;;;;;;5072477;28;20208;-50
2024/01/16 00:25:04;;;;;;;2.83;1.77;;;;;;;;;;5072265;28;20503;-50
2024/01/16 00:27:30;;;;;;;4.43;1.53;;;;;;;;;;5072237;28;20521;-50
2024/01/16 00:29:56;;;;;;;2.50;1.47;;;;;;;;;;5072146;28;20537;-50
2024/01/16 00:32:22;;;;;;;3.67;1.60;;;;;;;;;;5072352;28;20215;-50
2024/01/16 00:34:48;;;;;;;2.27;1.37;;;;;;;;;;5072080;28;20201;-50
2024/01/16 00:37:14;;;;;;;3.00;1.60;;;;;;;;;;5072406;28;20278;-51
2024/01/16 00:39:40;;;;;;;3.23;1.60;;;;;;;;;;5071723;28;20513;-51
2024/01/16 00:42:07;;;;;;;2.80;1.30;;;;;;;;;;5071881;28;20521;-50
2024/01/16 00:44:34;;;;;;;3.47;1.43;;;;;;;;;;5072137;28;20438;-51
2024/01/16 00:47:01;;;;;;;1.70;1.40;;;;;;;;;;5072173;28;20483;-51
2024/01/16 00:49:27;;;;;;;2.73;1.50;;;;;;;;;;5072170;28;21000;-50
2024/01/16 00:51:53;;;;;;;3.90;1.80;;;;;;;;;;5071543;28;20434;-49
2024/01/16 00:54:19;;;;;;;3.00;1.47;;;;;;;;;;5071894;28;20437;-50
2024/01/16 00:56:45;;;;;;;2.57;1.50;;;;;;;;;;5071276;28;20430;-50
2024/01/16 00:59:13;;;;;;;1.77;1.30;;;;;;;;;;5071745;28;21007;-51
2024/01/16 01:01:39;;;;;;;1.50;1.40;;;;;;;;;;5071664;28;20685;-50
2024/01/16 01:04:05;;;;;;;1.40;1.30;;;;;;;;;;5071351;28;20434;-49
2024/01/16 01:06:33;;;;;;;2.73;1.70;;;;;;;;;;5071890;28;20204;-50
2024/01/16 01:08:59;;;;;;;3.90;1.93;;;;;;;;;;5071618;28;20219;-50
2024/01/16 01:11:25;;;;;;;4.33;1.30;;;;;;;;;;5071590;28;20550;-50
2024/01/16 01:13:51;;;;;;;2.83;1.53;;;;;;;;;;5071442;28;20325;-51
2024/01/16 01:16:19;;;;;;;2.63;1.60;;;;;;;;;;5071647;28;20196;-49
2024/01/16 01:18:45;;;;;;;1.77;1.40;;;;;;;;;;5071942;28;20441;-50
2024/01/16 01:21:11;;;;;;;2.43;1.60;;;;;;;;;;5067833;28;20446;-50
2024/01/16 01:23:37;;;;;;;1.77;1.50;;;;;;;;;;5071751;28;20437;-50
2024/01/16 01:26:04;;;;;;;1.70;1.50;;;;;;;;;;5071498;28;20446;-50
2024/01/16 01:28:30;;;;;;;2.53;1.60;;;;;;;;;;5071587;28;20713;-49
2024/01/16 01:30:56;;;;;;;2.33;1.70;;;;;;;;;;5071449;28;20430;-49
2024/01/16 01:33:24;;;;;;;2.43;1.57;;;;;;;;;;5071500;28;20456;-50
2024/01/16 01:35:50;;;;;;;2.63;1.63;;;;;;;;;;5071511;28;20670;-49
2024/01/16 01:38:16;;;;;;;4.33;1.53;;;;;;;;;;5071576;28;20916;-50
2024/01/16 01:40:43;;;;;;;3.07;1.73;;;;;;;;;;5071524;28;20421;-51
2024/01/16 01:43:19;;;;;;;1.93;1.50;;;;;;;;;;5071468;28;20448;-50
2024/01/16 01:45:48;;;;;;;4.63;1.40;;;;;;;;;;5071537;28;20441;-49
2024/01/16 01:48:14;;;;;;;3.27;1.60;;;;;;;;;;5071376;28;20519;-49
2024/01/16 01:50:41;;;;;;;1.40;1.30;;;;;;;;;;5087013;28;20989;-50
2024/01/16 01:53:07;;;;;;;1.73;1.53;;;;;;;;;;5071350;28;20456;-50
2024/01/16 01:55:33;;;;;;;2.00;1.70;;;;;;;;;;5071350;28;20524;-50
2024/01/16 01:58:00;;;;;;;2.73;1.70;;;;;;;;;;5071468;28;20201;-47
2024/01/16 02:00:26;;;;;;;2.73;1.70;;;;;;;;;;5071393;28;20885;-48
2024/01/16 02:02:52;;;;;;;2.97;1.70;;;;;;;;;;5071190;28;20446;-49
2024/01/16 02:05:18;;;;;;;2.53;1.70;;;;;;;;;;5071415;28;20430;-49
2024/01/16 02:07:46;;;;;;;2.03;1.57;;;;;;;;;;5071284;28;20202;-49
2024/01/16 02:10:12;;;;;;;2.40;1.50;;;;;;;;;;5075197;28;20449;-48
2024/01/16 02:12:38;;;;;;;1.40;1.30;;;;;;;;;;5074910;28;20987;-49
2024/01/16 02:15:04;;;;;;;2.23;1.40;;;;;;;;;;5073137;28;20196;-48
2024/01/16 02:17:30;;;;;;;1.83;1.50;;;;;;;;;;5075100;28;20225;-49
2024/01/16 02:19:56;;;;;;;2.33;1.47;;;;;;;;;;5074974;28;20496;-49
2024/01/16 02:22:25;;;;;;;2.03;1.37;;;;;;;;;;5071413;28;20719;-48
2024/01/16 02:24:53;;;;;;;2.10;1.53;;;;;;;;;;5068107;28;20196;-49
2024/01/16 02:27:19;;;;;;;1.23;1.20;;;;;;;;;;5069821;28;20446;-49
2024/01/16 02:29:45;;;;;;;3.00;1.60;;;;;;;;;;5074727;28;20465;-48
2024/01/16 02:32:11;;;;;;;2.20;1.47;;;;;;;;;;5074497;28;20199;-49
2024/01/16 02:34:38;;;;;;;2.97;1.90;;;;;;;;;;5067854;28;21185;-49
2024/01/16 02:37:04;;;;;;;2.77;1.77;;;;;;;;;;5071217;28;20434;-48
2024/01/16 02:39:30;;;;;;;4.97;1.97;;;;;;;;;;5069527;28;20540;-49
2024/01/16 02:41:57;;;;;;;3.63;1.90;;;;;;;;;;5071149;28;20456;-49
2024/01/16 02:44:23;;;;;;;3.47;1.80;;;;;;;;;;5065993;28;20457;-46
2024/01/16 02:46:49;;;;;;;3.73;2.07;;;;;;;;;;5069499;28;20425;-47
2024/01/16 02:49:15;;;;;;;6.13;1.93;;;;;;;;;;5069113;28;20490;-47
2024/01/16 02:51:41;;;;;;;3.70;1.77;;;;;;;;;;5066527;28;20195;-47
2024/01/16 02:54:08;;;;;;;1.60;1.50;;;;;;;;;;5063943;28;20548;-47
2024/01/16 02:56:34;;;;;;;4.60;1.93;;;;;;;;;;5067456;28;20192;-47
2024/01/16 02:59:01;;;;;;;4.00;1.83;;;;;;;;;;5065649;28;20442;-47
2024/01/16 03:01:27;;;;;;;7.87;2.00;;;;;;;;;;5067215;28;20928;-47
2024/01/16 03:03:53;;;;;;;3.23;1.70;;;;;;;;;;5067220;28;20448;-47
2024/01/16 03:06:23;;;;;;;3.37;1.50;;;;;;;;;;5067047;28;20196;-48
2024/01/16 03:08:49;;;;;;;5.40;1.70;;;;;;;;;;5063929;28;20956;-47
2024/01/16 03:11:15;;;;;;;6.47;1.70;;;;;;;;;;5066981;28;20885;-47
2024/01/16 03:13:41;;;;;;;3.87;1.90;;;;;;;;;;5063772;28;20434;-47
2024/01/16 03:16:08;;;;;;;3.10;1.60;;;;;;;;;;5061722;28;20200;-48
2024/01/16 03:18:34;;;;;;;4.10;2.00;;;;;;;;;;5063440;28;20217;-48
2024/01/16 03:21:00;;;;;;;4.87;1.90;;;;;;;;;;5064611;28;20442;-47
2024/01/16 03:23:26;;;;;;;4.23;2.00;;;;;;;;;;5065253;28;20807;-47
2024/01/16 03:25:52;;;;;;;6.73;2.20;;;;;;;;;;5061684;28;20204;-47
2024/01/16 03:28:18;;;;;;;5.40;2.27;;;;;;;;;;5064981;28;20274;-47
2024/01/16 03:30:44;;;;;;;6.77;2.77;;;;;;;;;;5063435;28;20202;-48
2024/01/16 03:33:12;;;;;;;4.97;2.10;;;;;;;;;;5063260;28;20199;-48
2024/01/16 03:35:37;;;;;;;4.70;2.60;;;;;;;;;;5063228;28;20195;-47
2024/01/16 03:38:04;;;;;;;7.13;2.40;;;;;;;;;;5063130;28;20445;-47
2024/01/16 03:40:33;;;;;;;4.97;2.43;;;;;;;;;;5061653;28;20617;-47
2024/01/16 03:42:59;;;;;;;4.50;2.50;;;;;;;;;;5063258;28;20434;-47
2024/01/16 03:45:25;;;;;;;7.10;2.47;;;;;;;;;;5064066;28;20483;-48
2024/01/16 03:47:52;;;;;;;5.50;2.70;;;;;;;;;;5064656;28;20223;-47
2024/01/16 03:50:19;;;;;;;5.00;2.50;;;;;;;;;;5061168;28;20199;-47
2024/01/16 03:52:45;;;;;;;4.47;2.53;;;;;;;;;;5064651;28;20821;-48
2024/01/16 03:55:11;;;;;;;4.43;2.60;;;;;;;;;;5061029;28;20430;-48
2024/01/16 03:57:37;;;;;;;6.67;2.73;;;;;;;;;;5062776;28;20544;-48
2024/01/16 04:00:05;;;;;;;4.90;2.70;;;;;;;;;;5061267;28;20192;-47
2024/01/16 04:02:31;;;;;;;5.20;3.00;;;;;;;;;;5059573;28;20212;-48
2024/01/16 04:04:57;;;;;;;5.60;2.23;;;;;;;;;;5062721;28;20434;-47
2024/01/16 04:07:26;;;;;;;3.83;2.50;;;;;;;;;;5062571;28;20515;-47
2024/01/16 04:09:52;;;;;;;8.47;2.63;;;;;;;;;;5062537;28;20223;-47
2024/01/16 04:12:18;;;;;;;9.30;2.60;;;;;;;;;;5060673;28;20492;-48
2024/01/16 04:14:44;;;;;;;5.07;2.47;;;;;;;;;;5061017;28;20200;-47
2024/01/16 04:17:10;;;;;;;6.07;2.47;;;;;;;;;;5060550;28;20685;-47
2024/01/16 04:19:36;;;;;;;5.33;2.70;;;;;;;;;;5060769;28;20203;-47
2024/01/16 04:22:04;;;;;;;6.93;2.80;;;;;;;;;;5060649;28;20426;-47
2024/01/16 04:24:31;;;;;;;5.97;2.43;;;;;;;;;;5059040;28;20524;-47
2024/01/16 04:26:57;;;;;;;6.87;2.50;;;;;;;;;;5058896;28;20434;-48
2024/01/16 04:29:23;;;;;;;4.73;2.30;;;;;;;;;;5061941;28;21044;-47
2024/01/16 04:31:49;;;;;;;6.17;2.57;;;;;;;;;;5059308;28;20199;-47
2024/01/16 04:34:15;;;;;;;7.00;2.90;;;;;;;;;;5058636;28;20196;-48
2024/01/16 04:36:41;;;;;;;8.53;3.00;;;;;;;;;;5060406;28;20791;-48
2024/01/16 04:39:08;;;;;;;4.10;2.30;;;;;;;;;;5060323;28;20195;-48
2024/01/16 04:41:36;;;;;;;3.53;2.13;;;;;;;;;;5060098;28;20196;-47
2024/01/16 04:44:02;;;;;;;8.87;2.97;;;;;;;;;;5060551;28;20455;-47
2024/01/16 04:46:28;;;;;;;5.17;2.60;;;;;;;;;;5058588;28;20955;-47
2024/01/16 04:48:55;;;;;;;7.27;2.60;;;;;;;;;;5058282;28;20559;-48
2024/01/16 04:51:21;;;;;;;3.90;2.40;;;;;;;;;;5060018;28;20203;-47
2024/01/16 04:53:47;;;;;;;3.87;2.30;;;;;;;;;;5058411;28;20484;-48
2024/01/16 04:56:13;;;;;;;5.40;2.53;;;;;;;;;;5060087;28;20191;-47
2024/01/16 04:58:40;;;;;;;5.03;2.40;;;;;;;;;;5061788;28;20442;-48
2024/01/16 05:01:06;;;;;;;8.20;2.80;;;;;;;;;;5059806;28;20261;-48
2024/01/16 05:03:32;;;;;;;7.73;2.30;;;;;;;;;;5059960;28;20933;-47
2024/01/16 05:05:58;;;;;;;7.57;2.60;;;;;;;;;;5060035;28;20199;-47
2024/01/16 05:08:24;;;;;;;8.77;2.33;;;;;;;;;;5058021;28;20305;-48
2024/01/16 05:10:50;;;;;;;6.70;2.60;;;;;;;;;;5059904;28;20191;-47
2024/01/16 05:13:16;;;;;;;2.90;2.37;;;;;;;;;;5057864;28;20470;-48
2024/01/16 05:15:44;;;;;;;7.30;2.53;;;;;;;;;;5059819;28;20430;-48
2024/01/16 05:18:09;;;;;;;7.77;2.43;;;;;;;;;;5059499;28;20841;-48
2024/01/16 05:20:35;;;;;;;5.70;2.37;;;;;;;;;;5058047;28;20524;-47
2024/01/16 05:23:01;;;;;;;5.43;2.80;;;;;;;;;;5059708;28;20200;-48
2024/01/16 05:25:27;;;;;;;3.67;2.47;;;;;;;;;;5059915;28;20204;-47
2024/01/16 05:27:53;;;;;;;4.97;2.33;;;;;;;;;;5058001;28;20196;-47
2024/01/16 05:30:19;;;;;;;5.03;2.23;;;;;;;;;;5059521;28;20697;-48
2024/01/16 05:32:47;;;;;;;5.83;2.47;;;;;;;;;;5059652;28;20584;-48
2024/01/16 05:35:13;;;;;;;5.10;2.53;;;;;;;;;;5057838;28;20452;-47
2024/01/16 05:37:39;;;;;;;5.63;2.40;;;;;;;;;;5059731;28;20517;-48
2024/01/16 05:40:07;;;;;;;5.10;2.47;;;;;;;;;;5059326;28;20566;-48
2024/01/16 05:42:33;;;;;;;4.30;2.40;;;;;;;;;;5061397;28;20188;-47
2024/01/16 05:44:59;;;;;;;6.17;2.93;;;;;;;;;;5061804;28;20454;-47
2024/01/16 05:47:27;;;;;;;12.37;2.70;;;;;;;;;;5061695;28;20882;-47
2024/01/16 05:49:55;;;;;;;9.97;2.87;;;;;;;;;;5063369;28;20553;-47
2024/01/16 05:52:21;;;;;;;7.27;2.67;;;;;;;;;;5061640;28;20437;-48
2024/01/16 05:54:47;;;;;;;5.67;2.40;;;;;;;;;;5061710;28;20430;-47
2024/01/16 05:57:13;;;;;;;8.20;2.83;;;;;;;;;;5063318;28;20445;-48
2024/01/16 05:59:39;;;;;;;4.77;2.20;;;;;;;;;;5061701;28;20188;-48
2024/01/16 06:02:05;;;;;;;6.33;2.87;;;;;;;;;;5063185;28;20202;-47
2024/01/16 06:04:31;;;;;;;9.37;2.67;;;;;;;;;;5063215;28;20936;-47
2024/01/16 06:06:59;;;;;;;10.33;3.20;;;;;;;;;;5062952;28;20204;-47
2024/01/16 06:09:25;;;;;;;8.10;3.27;;;;;;;;;;5062951;28;20482;-47
2024/01/16 06:11:51;;;;;;;6.57;3.00;;;;;;;;;;5061270;28;20466;-47
2024/01/16 06:14:21;;;;;;;3.87;2.47;;;;;;;;;;5061158;28;20440;-47
2024/01/16 06:16:47;;;;;;;8.23;2.60;;;;;;;;;;5060952;28;20249;-47
2024/01/16 06:19:14;;;;;;;6.37;3.00;;;;;;;;;;5060985;28;20433;-47
2024/01/16 06:21:40;;;;;;;7.10;2.97;;;;;;;;;;5062351;28;20524;-46
2024/01/16 06:24:08;;;;;;;5.97;3.27;;;;;;;;;;5061031;28;20992;-49
2024/01/16 06:26:33;;;;;;;4.00;2.57;;;;;;;;;;5060859;28;20441;-49
2024/01/16 06:29:00;;;;;;;7.23;2.80;;;;;;;;;;5061230;28;20469;-49
2024/01/16 06:31:26;;;;;;;5.83;3.47;;;;;;;;;;5064084;28;20214;-49
2024/01/16 06:33:52;;;;;;;6.43;2.60;;;;;;;;;;5062570;28;21127;-46
2024/01/16 06:36:18;;;;;;;6.10;3.00;;;;;;;;;;5060876;28;20188;-49
2024/01/16 06:38:44;;;;;;;4.33;2.83;;;;;;;;;;5059759;28;20442;-46
2024/01/16 06:41:11;;;;;;;5.83;3.00;;;;;;;;;;5060666;28;20521;-49
2024/01/16 06:43:37;;;;;;;6.97;3.33;;;;;;;;;;5060778;28;20200;-49
2024/01/16 06:46:03;;;;;;;3.37;3.00;;;;;;;;;;5059081;28;20430;-49
2024/01/16 06:48:29;;;;;;;7.00;3.50;;;;;;;;;;5059511;28;20272;-49
2024/01/16 06:50:55;;;;;;;8.33;3.13;;;;;;;;;;5062228;28;20943;-49
2024/01/16 06:53:21;;;;;;;5.27;2.70;;;;;;;;;;5060504;28;20533;-47
2024/01/16 06:55:48;;;;;;;6.80;2.97;;;;;;;;;;5059486;28;20298;-47
2024/01/16 06:58:15;;;;;;;6.77;3.67;;;;;;;;;;5062374;28;20447;-47
2024/01/16 07:00:41;;;;;;;8.63;3.50;;;;;;;;;;5062243;28;20437;-47
2024/01/16 07:03:07;;;;;;;7.27;3.40;;;;;;;;;;5060325;28;20803;-47
2024/01/16 07:05:33;;;;;;;14.20;4.93;;;;;;;;;;5060389;28;20207;-47
2024/01/16 07:08:00;;;;;;;6.67;3.00;;;;;;;;;;5062083;28;20452;-47
2024/01/16 07:10:26;;;;;;;7.00;3.17;;;;;;;;;;5060057;28;20613;-47
2024/01/16 07:12:52;;;;;;;9.03;3.67;;;;;;;;;;5061669;28;20465;-47
2024/01/16 07:15:19;;;;;;;4.43;3.43;;;;;;;;;;5060007;28;20430;-47
2024/01/16 07:17:45;;;;;;;8.10;3.40;;;;;;;;;;5059665;28;20519;-47
2024/01/16 07:20:11;;;;;;;7.10;3.40;;;;;;;;;;5059869;28;20437;-47
2024/01/16 07:22:41;;;;;;;5.90;2.97;;;;;;;;;;5061788;28;20946;-47
2024/01/16 07:25:07;;;;;;;8.87;3.80;;;;;;;;;;5061747;28;20869;-47
2024/01/16 07:27:35;;;;;;;8.77;3.67;;;;;;;;;;5061737;28;20426;-47
2024/01/16 07:30:01;;;;;;;8.53;4.13;;;;;;;;;;5059952;28;20573;-47
2024/01/16 07:32:29;;;;;;;8.53;2.83;;;;;;;;;;5061276;28;20434;-47
2024/01/16 07:34:55;;;;;;;6.70;3.43;;;;;;;;;;5059774;28;20446;-48
2024/01/16 07:37:21;;;;;;;5.37;3.13;;;;;;;;;;5059538;28;20426;-48
2024/01/16 07:39:47;;;;;;;7.50;3.40;;;;;;;;;;5061417;28;20426;-48
2024/01/16 07:42:14;;;;;;;6.10;3.27;;;;;;;;;;5059638;28;20467;-48
2024/01/16 07:44:40;;;;;;;9.27;3.90;;;;;;;;;;5059515;28;20874;-47
2024/01/16 07:47:06;;;;;;;8.60;3.77;;;;;;;;;;5061065;28;20524;-48
2024/01/16 07:49:33;;;;;;;7.57;3.60;;;;;;;;;;5061116;28;20495;-47
2024/01/16 07:51:59;;;;;;;7.03;4.13;;;;;;;;;;5059420;28;20450;-47
2024/01/16 07:54:26;;;;;;;5.57;3.63;;;;;;;;;;5060904;28;20442;-48
2024/01/16 07:56:52;;;;;;;8.50;4.20;;;;;;;;;;5060849;28;20521;-47
2024/01/16 07:59:18;;;;;;;7.53;4.07;;;;;;;;;;5059152;28;20469;-48
2024/01/16 08:01:44;;;;;;;6.50;4.40;;;;;;;;;;5059421;28;20868;-47
2024/01/16 08:04:10;;;;;;;7.33;4.73;;;;;;;;;;5059343;28;20196;-48
2024/01/16 08:06:37;;;;;;;9.17;4.97;;;;;;;;;;5058738;28;20515;-48
2024/01/16 08:09:03;;;;;;;7.33;4.23;;;;;;;;;;5060486;28;20478;-48
2024/01/16 08:11:31;;;;;;;7.80;4.60;;;;;;;;;;5058605;28;20465;-48
2024/01/16 08:13:57;;;;;;;7.40;5.23;;;;;;;;;;5060810;28;20438;-48
2024/01/16 08:16:23;;;;;;;7.57;5.13;;;;;;;;;;5058601;28;20453;-49
2024/01/16 08:18:49;;;;;;;9.77;4.60;;;;;;;;;;5058799;28;20438;-49
2024/01/16 08:21:15;;;;;;;5.43;4.70;;;;;;;;;;5061818;28;20446;-49
2024/01/16 08:23:43;;;;;;;11.27;5.70;;;;;;;;;;5060484;28;20290;-49
2024/01/16 08:26:09;;;;;;;7.17;4.87;;;;;;;;;;5060300;28;20626;-49
2024/01/16 08:28:35;;;;;;;8.70;4.80;;;;;;;;;;5058541;28;20564;-49
2024/01/16 08:31:01;;;;;;;7.57;5.10;;;;;;;;;;5060082;28;20199;-49
2024/01/16 08:33:27;;;;;;;7.63;4.90;;;;;;;;;;5060335;28;20441;-49
2024/01/16 08:35:53;;;;;;;7.73;5.10;;;;;;;;;;5060336;28;20872;-49
2024/01/16 08:38:19;;;;;;;8.73;5.70;;;;;;;;;;5060230;28;20286;-49
2024/01/16 08:40:47;;;;;;;6.70;5.40;;;;;;;;;;5060431;28;20508;-49
2024/01/16 08:43:13;;;;;;;10.93;5.47;;;;;;;;;;5058521;28;20453;-49
2024/01/16 08:45:39;;;;;;;10.00;6.17;;;;;;;;;;5059886;28;20434;-48
2024/01/16 08:48:05;;;;;;;9.10;5.67;;;;;;;;;;5061724;28;20203;-49
2024/01/16 08:50:31;;;;;;;8.60;5.27;;;;;;;;;;5060034;28;20709;-51
2024/01/16 08:52:57;;;;;;;11.17;5.50;;;;;;;;;;5058368;28;20452;-50
2024/01/16 08:55:23;;;;;;;9.33;4.97;;;;;;;;;;5059250;28;20199;-50
2024/01/16 08:57:51;;;;;;;8.20;5.10;;;;;;;;;;5064507;28;20955;-50
2024/01/16 09:00:17;;;;;;;9.33;5.40;;;;;;;;;;5071188;28;20580;-51
2024/01/16 09:02:43;;;;;;;9.47;5.07;;;;;;;;;;5071704;28;20833;-51
2024/01/16 09:05:09;;;;;;;8.47;5.50;;;;;;;;;;5071286;28;20422;-50
2024/01/16 09:07:35;;;;;;;10.00;5.40;;;;;;;;;;5071361;28;20204;-52
2024/01/16 09:10:01;;;;;;;8.27;5.13;;;;;;;;;;5071264;28;20266;-52
2024/01/16 09:12:27;;;;;;;9.47;5.53;;;;;;;;;;5071312;28;20721;-52
2024/01/16 09:14:54;;;;;;;7.97;5.63;;;;;;;;;;5071461;28;20377;-51
2024/01/16 09:17:20;;;;;;;6.80;5.37;;;;;;;;;;5070468;28;20462;-52
2024/01/16 09:19:46;;;;;;;7.33;5.50;;;;;;;;;;5071236;28;20457;-51
2024/01/16 09:22:12;;;;;;;9.80;6.00;;;;;;;;;;5071499;28;20429;-51
2024/01/16 09:24:39;;;;;;;7.10;5.43;;;;;;;;;;5071863;28;20955;-51
2024/01/16 09:27:06;;;;;;;7.47;5.97;;;;;;;;;;5071386;28;20429;-51
2024/01/16 09:29:33;;;;;;;7.33;5.33;;;;;;;;;;5070856;28;20469;-51
2024/01/16 09:32:00;;;;;;;7.23;5.83;;;;;;;;;;5071246;28;20995;-53
2024/01/16 09:34:26;;;;;;;7.53;4.90;;;;;;;;;;5070915;28;20441;-52
2024/01/16 09:36:52;;;;;;;7.07;5.17;;;;;;;;;;5071571;28;20920;-53
2024/01/16 09:39:18;;;;;;;6.23;5.20;;;;;;;;;;5070992;28;20234;-51
2024/01/16 09:41:45;;;;;;;6.50;4.60;;;;;;;;;;5071026;28;20203;-51
2024/01/16 09:44:11;;;;;;;11.20;5.70;;;;;;;;;;5071224;28;20227;-52
2024/01/16 09:46:39;;;;;;;5.70;4.40;;;;;;;;;;5071200;28;20458;-52
2024/01/16 09:49:07;;;;;;;7.27;4.70;;;;;;;;;;5071101;28;20828;-53
2024/01/16 09:51:33;;;;;;;7.40;5.03;;;;;;;;;;5071079;28;20446;-51
2024/01/16 09:53:59;;;;;;;7.37;5.17;;;;;;;;;;5070883;28;20859;-50
2024/01/16 09:56:25;;;;;;;6.07;5.00;;;;;;;;;;5070959;28;20443;-49
2024/01/16 09:58:55;;;;;;;6.83;4.90;;;;;;;;;;5069778;28;20978;-49
2024/01/16 10:01:22;;;;;;;6.80;4.90;;;;;;;;;;5070869;28;20811;-49
2024/01/16 10:03:48;;;;;;;7.00;5.20;;;;;;;;;;5071095;28;20484;-52
2024/01/16 10:06:16;;;;;;;8.37;5.23;;;;;;;;;;5070792;28;20477;-51
2024/01/16 10:08:42;;;;;;;9.13;5.63;;;;;;;;;;5070564;28;20227;-48
2024/01/16 10:11:08;;;;;;;8.30;5.03;;;;;;;;;;5066712;28;20610;-50
2024/01/16 10:13:34;;;;;;;5.97;5.20;;;;;;;;;;5067207;28;20999;-50
2024/01/16 10:16:01;;;;;;;7.90;5.23;;;;;;;;;;5071146;28;20437;-50
2024/01/16 10:18:27;;;;;;;6.50;4.20;;;;;;;;;;5070850;28;20537;-51
2024/01/16 10:20:54;;;;;;;9.87;5.33;;;;;;;;;;5071102;28;20430;-51
2024/01/16 10:23:24;;;;;;;7.53;5.57;;;;;;;;;;5070955;28;21002;-50
2024/01/16 10:26:05;;;;;;;10.10;5.27;;;;;;;;;;5071199;28;20440;-50
2024/01/16 10:28:32;;;;;;;6.73;4.83;;;;;;;;;;5071052;28;20438;-51
2024/01/16 10:31:02;;;;;;;8.60;5.13;;;;;;;;;;5074455;28;20438;-51
2024/01/16 10:33:28;;;;;;;6.60;5.00;;;;;;;;;;5074447;28;20457;-51
2024/01/16 10:36:08;;;;;;;9.63;5.90;;;;;;;;;;5074707;28;20437;-51
2024/01/16 10:38:38;;;;;;;8.50;4.23;;;;;;;;;;5074474;28;20203;-51
2024/01/16 10:41:11;;;;;;;6.67;3.83;;;;;;;;;;5074556;28;20534;-50
2024/01/16 10:43:37;;;;;;;7.10;3.93;;;;;;;;;;5074375;28;20517;-51
2024/01/16 10:46:12;;;;;;;7.50;5.03;;;;;;;;;;5074479;28;20928;-51
2024/01/16 10:48:39;;;;;;;7.50;4.40;;;;;;;;;;5074020;28;20448;-50
2024/01/16 10:51:07;;;;;;;5.73;4.23;;;;;;;;;;5074936;28;20518;-51
2024/01/16 10:53:33;;;;;;;5.47;3.83;;;;;;;;;;5074513;28;20524;-51
2024/01/16 10:56:02;;;;;;;8.90;4.23;;;;;;;;;;5074343;28;20440;-51
2024/01/16 10:58:30;;;;;;;7.67;4.23;;;;;;;;;;5074186;28;20438;-51
2024/01/16 11:00:57;;;;;;;5.80;4.80;;;;;;;;;;5074029;28;20434;-50
2024/01/16 11:03:26;;;;;;;6.23;4.17;;;;;;;;;;5074155;28;20442;-51
2024/01/16 11:05:52;;;;;;;6.23;4.20;;;;;;;;;;5073958;28;20959;-51
2024/01/16 11:08:20;;;;;;;7.67;4.10;;;;;;;;;;5074121;28;20430;-52
2024/01/16 11:10:48;;;;;;;5.03;3.83;;;;;;;;;;5074077;28;20544;-52
2024/01/16 11:13:17;;;;;;;7.50;3.90;;;;;;;;;;5075004;28;20550;-52
2024/01/16 11:15:43;;;;;;;5.43;3.40;;;;;;;;;;5075405;28;20723;-51
2024/01/16 11:18:10;;;;;;;5.40;3.10;;;;;;;;;;5075965;28;20219;-53
2024/01/16 11:20:37;;;;;;;4.03;3.00;;;;;;;;;;5073753;28;20200;-52
2024/01/16 11:23:03;;;;;;;7.33;3.43;;;;;;;;;;5074535;28;20200;-53
2024/01/16 11:25:32;;;;;;;4.40;3.67;;;;;;;;;;5074650;28;20580;-50
2024/01/16 11:28:08;;;;;;;5.63;3.50;;;;;;;;;;5074077;28;20200;-53
2024/01/16 11:30:35;;;;;;;7.17;3.83;;;;;;;;;;5073923;28;20522;-48
2024/01/16 11:33:01;;;;;;;6.33;3.73;;;;;;;;;;5073752;28;20441;-50
2024/01/16 11:35:33;;;;;;;7.10;3.80;;;;;;;;;;5073676;28;20437;-51
2024/01/16 11:38:04;;;;;;;5.20;3.50;;;;;;;;;;5073607;28;20218;-50
2024/01/16 11:40:33;;;;;;;8.63;4.17;;;;;;;;;;5073192;28;20422;-50
2024/01/16 11:42:59;;;;;;;6.23;3.63;;;;;;;;;;5073653;28;20492;-52
2024/01/16 11:45:43;;;;;;;6.40;3.60;;;;;;;;;;5073157;28;20438;-49
2024/01/16 11:48:11;;;;;;;6.80;3.80;;;;;;;;;;5073249;28;20638;-49
2024/01/16 11:50:37;;;;;;;5.83;4.03;;;;;;;;;;5073028;28;20531;-49
2024/01/16 11:53:06;;;;;;;4.30;3.90;;;;;;;;;;5073254;28;20429;-49
2024/01/16 11:55:33;;;;;;;4.20;3.80;;;;;;;;;;5073156;28;20908;-49
2024/01/16 11:58:17;;;;;;;8.97;4.60;;;;;;;;;;5073230;28;20442;-48
2024/01/16 12:00:45;;;;;;;5.40;3.63;;;;;;;;;;5062882;28;20473;-48
2024/01/16 12:03:16;;;;;;;8.00;3.70;;;;;;;;;;5073415;28;20438;-50
2024/01/16 12:05:43;;;;;;;6.87;4.00;;;;;;;;;;5073118;28;20441;-49
2024/01/16 12:08:09;;;;;;;5.37;3.80;;;;;;;;;;5073242;28;20492;-49
2024/01/16 12:10:46;;;;;;;5.43;3.40;;;;;;;;;;5072753;28;20474;-48
2024/01/16 12:13:12;;;;;;;7.00;4.10;;;;;;;;;;5070952;28;20481;-49
2024/01/16 12:15:38;;;;;;;8.03;3.63;;;;;;;;;;5072462;28;20491;-49
2024/01/16 12:18:04;;;;;;;7.27;3.70;;;;;;;;;;5072478;28;20470;-49
2024/01/16 12:20:32;;;;;;;4.83;3.60;;;;;;;;;;5072313;28;20237;-49
2024/01/16 12:22:59;;;;;;;4.57;3.80;;;;;;;;;;5072259;28;20438;-49
2024/01/16 12:25:25;;;;;;;5.57;3.83;;;;;;;;;;5072323;28;20440;-49
2024/01/16 12:27:55;;;;;;;6.10;3.93;;;;;;;;;;5072196;28;20511;-49
2024/01/16 12:30:21;;;;;;;6.47;3.53;;;;;;;;;;5071648;28;20478;-48
2024/01/16 12:32:47;;;;;;;6.27;3.80;;;;;;;;;;5072045;28;20441;-49
2024/01/16 12:35:19;;;;;;;5.97;3.70;;;;;;;;;;5072130;28;20430;-49
2024/01/16 12:37:59;;;;;;;6.40;3.97;;;;;;;;;;5072168;28;20274;-49
2024/01/16 12:40:25;;;;;;;7.37;4.10;;;;;;;;;;5072023;28;20802;-49
2024/01/16 12:42:51;;;;;;;5.43;3.83;;;;;;;;;;5072090;28;20444;-49
2024/01/16 12:45:17;;;;;;;5.60;3.70;;;;;;;;;;5071759;28;20877;-49
2024/01/16 12:47:44;;;;;;;7.63;4.23;;;;;;;;;;5072240;28;20261;-49
2024/01/16 12:50:10;;;;;;;4.70;3.70;;;;;;;;;;5071913;28;20544;-49
2024/01/16 12:52:36;;;;;;;7.10;3.73;;;;;;;;;;5071272;28;20453;-49
2024/01/16 12:55:05;;;;;;;5.60;3.67;;;;;;;;;;5071756;28;20924;-49
2024/01/16 12:57:31;;;;;;;7.80;3.80;;;;;;;;;;5072215;28;20574;-49
2024/01/16 13:00:00;;;;;;;6.90;4.67;;;;;;;;;;5072215;28;20430;-49
2024/01/16 13:05:30;;;;;;;6.90;3.80;;;;;;;;;;5072086;28;20420;-49
2024/01/16 13:08:05;;;;;;;5.50;3.83;;;;;;;;;;5071974;28;20438;-49
2024/01/16 13:10:33;;;;;;;4.40;3.60;;;;;;;;;;5071794;28;20252;-48
2024/01/16 13:13:15;;;;;;;5.50;3.77;;;;;;;;;;5063278;28;20466;-48
2024/01/16 13:15:41;;;;;;;6.50;4.00;;;;;;;;;;5059722;28;20446;-49
2024/01/16 13:18:17;;;;;;;7.17;4.50;;;;;;;;;;5059791;28;20836;-48
2024/01/16 13:20:43;;;;;;;6.70;4.27;;;;;;;;;;5058111;28;20849;-49
2024/01/16 13:23:09;;;;;;;5.90;4.70;;;;;;;;;;5058069;28;20422;-49
2024/01/16 13:25:36;;;;;;;5.93;4.37;;;;;;;;;;5059866;28;20585;-49
2024/01/16 13:28:02;;;;;;;10.07;4.80;;;;;;;;;;5057881;28;20199;-49
2024/01/16 13:30:28;;;;;;;7.23;4.70;;;;;;;;;;5057828;28;20469;-49
2024/01/16 13:32:54;;;;;;;9.57;4.63;;;;;;;;;;5058531;28;20441;-48
2024/01/16 13:35:20;;;;;;;7.17;5.03;;;;;;;;;;5058004;28;20547;-48
2024/01/16 13:37:46;;;;;;;6.27;4.67;;;;;;;;;;5057879;28;20282;-49
2024/01/16 13:40:15;;;;;;;7.43;4.53;;;;;;;;;;5057914;28;20206;-49
2024/01/16 13:42:42;;;;;;;5.90;4.33;;;;;;;;;;5059484;28;20277;-49
2024/01/16 13:45:09;;;;;;;5.93;4.30;;;;;;;;;;5057850;28;20445;-48
2024/01/16 13:47:39;;;;;;;6.27;4.87;;;;;;;;;;5057862;28;20438;-49
2024/01/16 13:50:05;;;;;;;5.77;4.30;;;;;;;;;;5057689;28;20485;-49
2024/01/16 13:52:31;;;;;;;8.63;5.03;;;;;;;;;;5058091;28;20472;-49
2024/01/16 13:54:57;;;;;;;5.80;4.67;;;;;;;;;;5057785;28;20457;-49
2024/01/16 13:57:23;;;;;;;5.20;4.30;;;;;;;;;;5057920;28;20222;-49
2024/01/16 13:59:51;;;;;;;6.67;4.60;;;;;;;;;;5057582;28;20245;-49
2024/01/16 14:02:16;;;;;;;7.07;4.83;;;;;;;;;;5057942;28;20217;-49
2024/01/16 14:04:43;;;;;;;7.53;4.70;;;;;;;;;;5059390;28;20932;-49
2024/01/16 14:07:09;;;;;;;5.47;4.83;;;;;;;;;;5061880;28;21194;-49
2024/01/16 14:09:35;;;;;;;9.87;5.00;;;;;;;;;;5061521;28;20484;-49
2024/01/16 14:12:01;;;;;;;8.27;5.90;;;;;;;;;;5063461;28;20802;-49
2024/01/16 14:14:27;;;;;;;9.13;6.27;;;;;;;;;;5063331;28;20495;-48
2024/01/16 14:16:55;;;;;;;7.73;5.80;;;;;;;;;;5061347;28;20980;-48
2024/01/16 14:19:21;;;;;;;10.37;6.40;;;;;;;;;;5061443;28;20898;-49
2024/01/16 14:21:47;;;;;;;9.10;6.60;;;;;;;;;;5061473;28;20434;-49
2024/01/16 14:24:14;;;;;;;11.67;7.27;;;;;;;;;;5070084;28;20441;-48
2024/01/16 14:26:44;;;;;;;13.40;7.50;;;;;;;;;;5074949;28;20453;-49
2024/01/16 14:29:10;;;;;;;9.33;7.97;;;;;;;;;;5074910;28;20473;-50
2024/01/16 14:31:36;;;;;;;12.30;7.27;;;;;;;;;;5075005;28;20658;-49
2024/01/16 14:34:07;;;;;;;12.23;8.00;;;;;;;;;;5075265;28;20450;-50
2024/01/16 14:36:34;;;;;;;8.97;7.23;;;;;;;;;;5075789;28;20204;-49
2024/01/16 14:39:00;;;;;;;10.60;7.43;;;;;;;;;;5075177;28;20519;-49
2024/01/16 14:41:26;;;;;;;12.53;7.70;;;;;;;;;;5074688;28;20837;-49
2024/01/16 14:43:52;;;;;;;10.13;8.03;;;;;;;;;;5074371;28;20434;-50